createdAt,value
2019-05-07T00:01:44.322Z,7.03
2019-05-07T00:04:12.902Z,7.17
2019-05-07T00:06:43.293Z,7.50
2019-05-07T00:09:12.289Z,7.87
2019-05-07T00:11:42.470Z,6.87
2019-05-07T00:14:09.964Z,7.90
2019-05-07T00:16:37.880Z,6.70
2019-05-07T00:19:06.049Z,7.17
2019-05-07T00:21:33.888Z,7.00
2019-05-07T00:24:02.282Z,6.90
2019-05-07T00:26:32.071Z,6.73
2019-05-07T00:29:02.157Z,7.37
2019-05-07T00:31:29.608Z,6.43
2019-05-07T00:33:57.475Z,6.90
2019-05-07T00:36:34.399Z,6.77
2019-05-07T00:39:13.839Z,5.70
2019-05-07T00:41:46.758Z,6.80
2019-05-07T00:44:14.951Z,6.33
2019-05-07T00:46:42.848Z,6.90
2019-05-07T00:49:12.671Z,6.60
2019-05-07T00:51:42.293Z,5.80
2019-05-07T00:54:12.270Z,6.20
2019-05-07T00:56:42.700Z,6.10
2019-05-07T00:59:10.244Z,6.50
2019-05-07T01:01:38.228Z,5.97
2019-05-07T01:04:06.174Z,6.70
2019-05-07T01:06:34.072Z,6.10
2019-05-07T01:09:03.135Z,6.27
2019-05-07T01:11:33.408Z,6.50
2019-05-07T01:14:02.751Z,6.40
2019-05-07T01:16:32.795Z,6.90
2019-05-07T01:19:02.040Z,7.30
2019-05-07T01:21:32.260Z,6.27
2019-05-07T01:23:59.574Z,6.70
2019-05-07T01:26:27.539Z,6.67
2019-05-07T01:28:59.004Z,6.57
2019-05-07T01:31:29.334Z,6.60
2019-05-07T01:34:06.894Z,6.30
2019-05-07T01:36:34.802Z,6.80
2019-05-07T01:39:03.364Z,7.20
2019-05-07T01:41:32.663Z,6.07
2019-05-07T01:44:02.071Z,5.50
2019-05-07T01:46:32.308Z,5.70
2019-05-07T01:48:59.944Z,6.07
2019-05-07T01:51:28.091Z,6.50
2019-05-07T01:53:56.173Z,6.17
2019-05-07T01:56:24.244Z,5.83
2019-05-07T01:58:52.764Z,7.33
2019-05-07T02:01:22.199Z,6.60
2019-05-07T02:03:56.751Z,7.20
2019-05-07T02:06:35.657Z,6.40
2019-05-07T02:09:14.008Z,5.70
2019-05-07T02:11:43.950Z,5.23
2019-05-07T02:14:13.595Z,6.37
2019-05-07T02:16:41.916Z,5.90
2019-05-07T02:19:09.905Z,6.10
2019-05-07T02:21:37.783Z,5.87
2019-05-07T02:24:05.722Z,6.47
2019-05-07T02:26:33.695Z,6.73
2019-05-07T02:29:02.705Z,6.40
2019-05-07T02:31:33.726Z,6.40
2019-05-07T02:34:02.843Z,6.17
2019-05-07T02:36:33.690Z,6.50
2019-05-07T02:39:15.079Z,6.47
2019-05-07T02:41:44.169Z,6.17
2019-05-07T02:44:13.984Z,7.03
2019-05-07T02:46:48.287Z,6.60
2019-05-07T02:49:32.745Z,6.50
2019-05-07T02:52:25.385Z,6.63
2019-05-07T02:55:03.871Z,6.47
2019-05-07T02:57:33.897Z,5.83
2019-05-07T03:00:04.044Z,5.63
2019-05-07T03:02:33.150Z,6.80
2019-05-07T03:05:00.244Z,6.73
2019-05-07T03:07:28.092Z,6.77
2019-05-07T03:09:56.067Z,7.27
2019-05-07T03:12:24.171Z,6.53
2019-05-07T03:14:53.616Z,6.40
2019-05-07T03:17:24.611Z,6.40
2019-05-07T03:19:53.414Z,6.83
2019-05-07T03:22:23.156Z,7.13
2019-05-07T03:24:58.849Z,6.63
2019-05-07T03:27:26.722Z,6.37
2019-05-07T03:30:09.461Z,6.00
2019-05-07T03:32:46.849Z,6.43
2019-05-07T03:35:18.269Z,6.70
2019-05-07T03:37:46.188Z,6.73
2019-05-07T03:40:14.485Z,6.57
2019-05-07T03:42:43.986Z,7.60
2019-05-07T03:45:43.563Z,6.53
2019-05-07T03:48:16.474Z,6.60
2019-05-07T03:50:44.482Z,6.43
2019-05-07T03:53:14.229Z,7.40
2019-05-07T03:55:44.786Z,7.10
2019-05-07T03:58:14.622Z,7.40
2019-05-07T04:00:44.356Z,6.63
2019-05-07T04:03:13.884Z,7.03
2019-05-07T04:05:43.292Z,7.20
2019-05-07T04:08:13.247Z,7.33
2019-05-07T04:10:40.344Z,6.73
2019-05-07T04:13:08.234Z,6.70
2019-05-07T04:15:36.184Z,7.20
2019-05-07T04:18:04.226Z,7.03
2019-05-07T04:20:33.290Z,7.43
2019-05-07T04:23:04.331Z,7.40
2019-05-07T04:25:44.288Z,7.07
2019-05-07T04:28:23.773Z,6.63
2019-05-07T04:30:53.309Z,7.20
2019-05-07T04:33:23.826Z,7.43
2019-05-07T04:35:57.591Z,7.50
2019-05-07T04:38:25.557Z,6.93
2019-05-07T04:40:53.900Z,6.50
2019-05-07T04:43:23.337Z,6.67
2019-05-07T04:45:53.697Z,6.90
2019-05-07T04:48:23.350Z,6.93
2019-05-07T04:50:54.221Z,6.93
2019-05-07T04:53:23.656Z,6.37
2019-05-07T04:55:53.583Z,6.10
2019-05-07T04:58:23.644Z,6.10
2019-05-07T05:00:53.685Z,6.67
2019-05-07T05:03:23.770Z,6.07
2019-05-07T05:05:53.221Z,6.10
2019-05-07T05:08:23.338Z,5.87
2019-05-07T05:10:53.786Z,5.47
2019-05-07T05:13:23.273Z,7.00
2019-05-07T05:15:52.645Z,5.90
2019-05-07T05:18:21.900Z,6.97
2019-05-07T05:21:02.780Z,5.73
2019-05-07T05:23:48.538Z,5.57
2019-05-07T05:26:16.676Z,6.50
2019-05-07T05:28:44.638Z,6.70
2019-05-07T05:31:12.759Z,5.90
2019-05-07T05:33:41.962Z,6.10
2019-05-07T05:36:17.404Z,5.97
2019-05-07T05:38:45.663Z,5.80
2019-05-07T05:41:13.816Z,5.77
2019-05-07T05:43:56.069Z,6.50
2019-05-07T05:46:25.368Z,5.40
2019-05-07T05:48:53.292Z,5.40
2019-05-07T05:51:40.465Z,5.30
2019-05-07T05:54:36.681Z,6.30
2019-05-07T05:57:14.206Z,6.23
2019-05-07T05:59:55.452Z,4.90
2019-05-07T06:02:32.847Z,5.27
2019-05-07T06:05:22.065Z,5.13
2019-05-07T06:08:00.083Z,5.50
2019-05-07T06:10:42.451Z,4.50
2019-05-07T06:13:25.140Z,4.73
2019-05-07T06:16:06.981Z,4.87
2019-05-07T06:18:52.448Z,6.90
2019-05-07T06:21:48.420Z,5.00
2019-05-07T06:24:18.940Z,4.80
2019-05-07T06:26:47.003Z,4.80
2019-05-07T06:29:15.114Z,4.73
2019-05-07T06:31:45.062Z,5.00
2019-05-07T06:34:13.158Z,5.10
2019-05-07T06:36:42.388Z,4.50
2019-05-07T06:39:23.230Z,5.70
2019-05-07T06:42:09.010Z,5.10
2019-05-07T06:44:37.096Z,5.57
2019-05-07T06:47:05.045Z,5.17
2019-05-07T06:49:33.027Z,4.87
2019-05-07T06:52:02.984Z,6.20
2019-05-07T06:54:32.142Z,5.80
2019-05-07T06:57:01.963Z,5.80
2019-05-07T06:59:42.333Z,5.30
2019-05-07T07:02:33.180Z,5.70
2019-05-07T07:05:13.974Z,5.57
2019-05-07T07:07:52.699Z,5.80
2019-05-07T07:10:45.742Z,5.30
2019-05-07T07:13:13.618Z,5.37
2019-05-07T07:15:42.728Z,5.10
2019-05-07T07:18:12.405Z,5.33
2019-05-07T07:20:40.306Z,4.40
2019-05-07T07:23:08.164Z,5.77
2019-05-07T07:25:36.110Z,5.87
2019-05-07T07:28:03.997Z,5.13
2019-05-07T07:30:42.088Z,5.07
2019-05-07T07:33:12.145Z,4.67
2019-05-07T07:35:42.631Z,4.60
2019-05-07T07:38:32.886Z,5.03
2019-05-07T07:41:05.494Z,4.53
2019-05-07T07:43:33.422Z,4.83
2019-05-07T07:46:02.194Z,5.00
2019-05-07T07:48:32.098Z,4.60
2019-05-07T07:51:00.246Z,4.57
2019-05-07T07:53:28.162Z,4.20
2019-05-07T07:56:15.177Z,4.20
2019-05-07T07:58:55.670Z,5.63
2019-05-07T08:01:32.973Z,4.70
2019-05-07T08:04:02.760Z,4.10
2019-05-07T08:06:32.636Z,4.47
2019-05-07T08:09:02.212Z,3.87
2019-05-07T08:11:31.959Z,5.10
2019-05-07T08:14:02.219Z,4.50
2019-05-07T08:16:29.944Z,4.07
2019-05-07T08:18:58.078Z,4.43
2019-05-07T08:21:26.221Z,4.90
2019-05-07T08:23:54.374Z,4.67
2019-05-07T08:26:22.561Z,4.30
2019-05-07T08:28:52.266Z,3.80
2019-05-07T08:31:37.791Z,4.90
2019-05-07T08:34:14.223Z,5.10
2019-05-07T08:36:42.167Z,4.57
2019-05-07T08:39:10.203Z,4.63
2019-05-07T08:41:38.057Z,4.80
2019-05-07T08:44:15.609Z,4.57
2019-05-07T08:47:04.618Z,5.30
2019-05-07T08:49:39.376Z,4.90
2019-05-07T08:52:03.435Z,4.90
2019-05-07T08:54:32.294Z,4.50
2019-05-07T08:57:01.935Z,5.70
2019-05-07T08:59:31.887Z,4.90
2019-05-07T09:02:02.654Z,5.27
2019-05-07T09:04:29.982Z,5.20
2019-05-07T09:06:57.862Z,5.70
2019-05-07T09:09:25.737Z,5.23
2019-05-07T09:11:53.650Z,5.40
2019-05-07T09:14:24.487Z,5.17
2019-05-07T09:16:52.747Z,5.20
2019-05-07T09:19:21.713Z,5.00
2019-05-07T09:21:49.694Z,5.47
2019-05-07T09:24:17.790Z,5.70
2019-05-07T09:27:12.172Z,5.20
2019-05-07T09:30:08.538Z,4.20
2019-05-07T09:33:02.545Z,5.40
2019-05-07T09:35:39.775Z,5.20
2019-05-07T09:38:07.237Z,7.90
2019-05-07T09:40:35.133Z,4.93
2019-05-07T09:43:03.000Z,4.40
2019-05-07T09:45:32.675Z,4.50
2019-05-07T09:48:02.844Z,4.40
2019-05-07T09:50:32.325Z,4.60
2019-05-07T09:53:02.115Z,4.37
2019-05-07T09:55:32.318Z,4.20
2019-05-07T09:57:59.507Z,4.33
2019-05-07T10:00:28.550Z,4.73
2019-05-07T10:02:56.809Z,3.83
2019-05-07T10:05:24.736Z,4.00
2019-05-07T10:07:52.734Z,3.97
2019-05-07T10:10:22.308Z,4.00
2019-05-07T10:13:04.310Z,3.90
2019-05-07T10:15:33.089Z,3.33
2019-05-07T10:18:09.733Z,3.70
2019-05-07T10:20:37.559Z,3.10
2019-05-07T10:23:07.127Z,3.40
2019-05-07T10:25:41.091Z,4.00
2019-05-07T10:28:09.113Z,3.60
2019-05-07T10:30:37.153Z,4.13
2019-05-07T10:33:05.153Z,3.80
2019-05-07T10:35:33.756Z,3.60
2019-05-07T10:38:02.055Z,3.57
2019-05-07T10:40:29.992Z,3.80
2019-05-07T10:42:57.926Z,3.67
2019-05-07T10:45:47.924Z,4.13
2019-05-07T10:48:24.333Z,4.60
2019-05-07T10:50:53.576Z,4.60
2019-05-07T10:53:22.972Z,4.60
2019-05-07T10:55:50.946Z,4.70
2019-05-07T10:58:18.852Z,4.40
2019-05-07T11:00:46.781Z,4.43
2019-05-07T11:03:14.663Z,4.40
2019-05-07T11:05:42.513Z,4.07
2019-05-07T11:08:10.414Z,4.80
2019-05-07T11:10:38.287Z,4.63
2019-05-07T11:13:06.181Z,4.90
2019-05-07T11:15:34.102Z,4.93
2019-05-07T11:18:12.799Z,4.83
2019-05-07T11:20:49.874Z,4.20
2019-05-07T11:23:10.543Z,4.27
2019-05-07T11:25:38.461Z,4.50
2019-05-07T11:28:06.490Z,4.80
2019-05-07T11:30:34.404Z,4.50
2019-05-07T11:33:02.818Z,4.43
2019-05-07T11:35:31.881Z,4.40
2019-05-07T11:38:02.634Z,4.40
2019-05-07T11:40:32.167Z,3.90
2019-05-07T11:43:18.328Z,4.57
2019-05-07T11:46:13.054Z,4.10
2019-05-07T11:48:47.519Z,4.07
2019-05-07T11:51:46.555Z,4.50
2019-05-07T11:54:14.727Z,4.80
2019-05-07T11:56:42.616Z,3.90
2019-05-07T11:59:13.101Z,4.40
2019-05-07T12:01:47.164Z,4.43
2019-05-07T12:04:12.816Z,4.93
2019-05-07T12:06:40.925Z,3.50
2019-05-07T12:09:08.982Z,4.40
2019-05-07T12:11:36.893Z,4.67
2019-05-07T12:14:06.263Z,4.17
2019-05-07T12:16:34.353Z,3.87
2019-05-07T12:19:02.419Z,4.23
2019-05-07T12:21:30.416Z,4.30
2019-05-07T12:23:58.315Z,4.70
2019-05-07T12:26:26.172Z,4.37
2019-05-07T12:28:54.093Z,5.10
2019-05-07T12:31:41.666Z,4.37
2019-05-07T12:34:13.096Z,4.40
2019-05-07T12:36:41.030Z,4.00
2019-05-07T12:39:09.237Z,4.60
2019-05-07T12:41:37.149Z,4.27
2019-05-07T12:44:06.386Z,4.50
2019-05-07T12:46:34.392Z,4.67
2019-05-07T12:49:03.065Z,4.50
2019-05-07T12:51:37.106Z,4.00
2019-05-07T12:54:22.708Z,4.20
2019-05-07T12:56:52.000Z,4.03
2019-05-07T12:59:21.791Z,4.33
2019-05-07T13:02:26.720Z,3.70
2019-05-07T13:04:41.809Z,3.83
2019-05-07T13:07:14.680Z,4.30
2019-05-07T13:09:42.864Z,4.40
2019-05-07T13:12:10.797Z,3.90
2019-05-07T13:14:38.712Z,5.20
2019-05-07T13:17:06.613Z,4.40
2019-05-07T13:19:34.636Z,3.37
2019-05-07T13:22:02.660Z,4.67
2019-05-07T13:24:32.090Z,4.37
2019-05-07T13:27:00.206Z,3.40
2019-05-07T13:29:28.078Z,4.10
2019-05-07T13:31:56.231Z,3.03
2019-05-07T13:34:24.113Z,3.90
2019-05-07T13:36:55.493Z,3.90
2019-05-07T13:39:33.790Z,4.00
2019-05-07T13:42:26.789Z,3.70
2019-05-07T13:45:02.680Z,3.97
2019-05-07T13:47:41.423Z,3.80
2019-05-07T13:50:11.926Z,3.83
2019-05-07T13:52:40.191Z,4.13
2019-05-07T13:55:08.360Z,4.30
2019-05-07T13:57:36.232Z,3.63
2019-05-07T14:00:05.652Z,4.00
2019-05-07T14:02:33.585Z,4.00
2019-05-07T14:05:01.510Z,3.77
2019-05-07T14:07:32.255Z,3.97
2019-05-07T14:10:02.119Z,5.27
2019-05-07T14:12:33.507Z,4.30
2019-05-07T14:15:02.019Z,4.00
2019-05-07T14:17:29.351Z,3.57
2019-05-07T14:19:57.245Z,3.73
2019-05-07T14:22:25.331Z,4.00
2019-05-07T14:24:53.301Z,4.50
2019-05-07T14:27:21.187Z,4.63
2019-05-07T14:29:49.127Z,3.90
2019-05-07T14:32:45.136Z,3.70
2019-05-07T14:35:22.853Z,3.43
2019-05-07T14:37:57.280Z,4.30
2019-05-07T14:40:25.432Z,3.87
2019-05-07T14:43:05.171Z,4.20
2019-05-07T14:45:33.246Z,3.80
2019-05-07T14:48:02.926Z,4.70
2019-05-07T14:50:32.847Z,4.07
2019-05-07T14:53:02.726Z,4.50
2019-05-07T14:55:32.430Z,3.80
2019-05-07T14:58:01.856Z,4.13
2019-05-07T15:00:30.038Z,4.13
2019-05-07T15:02:57.942Z,4.17
2019-05-07T15:05:26.042Z,5.00
2019-05-07T15:08:07.062Z,4.67
2019-05-07T15:10:23.700Z,4.53
2019-05-07T15:12:52.235Z,4.67
2019-05-07T15:15:21.927Z,4.33
2019-05-07T15:18:00.371Z,4.00
2019-05-07T15:20:28.282Z,3.87
2019-05-07T15:23:07.292Z,3.73
2019-05-07T15:25:35.254Z,3.40
2019-05-07T15:28:03.391Z,3.80
2019-05-07T15:30:53.295Z,4.00
2019-05-07T15:33:21.793Z,4.77
2019-05-07T15:35:51.571Z,3.37
2019-05-07T15:38:21.598Z,4.40
2019-05-07T15:40:49.292Z,3.77
2019-05-07T15:43:17.201Z,3.90
2019-05-07T15:45:45.079Z,3.80
2019-05-07T15:48:12.998Z,4.27
2019-05-07T15:50:42.898Z,3.43
2019-05-07T15:53:15.580Z,3.83
2019-05-07T15:55:52.443Z,4.23
2019-05-07T15:58:22.599Z,4.97
2019-05-07T16:00:58.784Z,4.30
2019-05-07T16:03:32.214Z,3.50
2019-05-07T16:06:03.571Z,4.20
2019-05-07T16:08:32.097Z,3.33
2019-05-07T16:11:01.590Z,3.90
2019-05-07T16:13:32.716Z,4.53
2019-05-07T16:16:02.313Z,3.47
2019-05-07T16:18:39.215Z,3.40
2019-05-07T16:21:07.312Z,3.60
2019-05-07T16:23:35.251Z,3.60
2019-05-07T16:26:05.321Z,3.80
2019-05-07T16:28:32.935Z,3.90
2019-05-07T16:31:02.566Z,3.67
2019-05-07T16:33:31.975Z,3.70
2019-05-07T16:36:02.153Z,3.43
2019-05-07T16:38:32.543Z,3.67
2019-05-07T16:40:59.887Z,3.10
2019-05-07T16:43:27.795Z,4.20
2019-05-07T16:45:55.741Z,3.53
2019-05-07T16:48:23.785Z,3.40
2019-05-07T16:50:52.256Z,3.50
2019-05-07T16:53:29.663Z,3.37
2019-05-07T16:55:52.153Z,4.10
2019-05-07T16:58:26.089Z,2.97
2019-05-07T17:01:00.048Z,3.83
2019-05-07T17:03:32.119Z,3.50
2019-05-07T17:06:01.769Z,3.80
2019-05-07T17:08:58.115Z,3.47
2019-05-07T17:11:26.130Z,3.20
2019-05-07T17:13:53.985Z,3.47
2019-05-07T17:16:22.796Z,3.40
2019-05-07T17:18:51.852Z,3.30
2019-05-07T17:21:21.808Z,3.40
2019-05-07T17:23:51.746Z,2.80
2019-05-07T17:26:19.271Z,3.60
2019-05-07T17:28:47.266Z,3.63
2019-05-07T17:31:15.160Z,3.30
2019-05-07T17:33:43.097Z,4.10
2019-05-07T17:36:12.050Z,3.70
2019-05-07T17:38:40.268Z,3.63
2019-05-07T17:41:13.567Z,7.00
2019-05-07T17:43:38.105Z,4.80
2019-05-07T17:46:06.045Z,4.00
2019-05-07T17:48:33.903Z,3.47
2019-05-07T17:51:23.740Z,3.40
2019-05-07T17:53:59.393Z,3.80
2019-05-07T17:56:22.381Z,4.17
2019-05-07T17:58:52.223Z,3.50
2019-05-07T18:01:24.652Z,3.30
2019-05-07T18:03:52.607Z,3.70
2019-05-07T18:06:20.610Z,2.97
2019-05-07T18:08:48.703Z,3.70
2019-05-07T18:11:20.759Z,4.23
2019-05-07T18:13:46.249Z,4.67
2019-05-07T18:16:24.681Z,3.80
2019-05-07T18:18:52.694Z,3.73
2019-05-07T18:21:22.035Z,3.60
2019-05-07T18:23:51.729Z,4.37
2019-05-07T18:26:29.770Z,4.70
2019-05-07T18:28:49.505Z,3.77
2019-05-07T18:31:18.211Z,4.30
2019-05-07T18:33:52.624Z,4.20
2019-05-07T18:36:22.640Z,3.90
2019-05-07T18:39:01.783Z,3.93
2019-05-07T18:41:32.485Z,5.17
2019-05-07T18:44:09.934Z,4.80
2019-05-07T18:46:29.733Z,4.40
2019-05-07T18:48:57.611Z,4.13
2019-05-07T18:51:25.485Z,3.77
2019-05-07T18:53:55.837Z,3.97
2019-05-07T18:56:24.063Z,4.20
2019-05-07T18:58:54.756Z,4.07
2019-05-07T19:01:23.532Z,4.50
2019-05-07T19:03:52.595Z,4.67
2019-05-07T19:06:23.002Z,4.00
2019-05-07T19:09:09.936Z,4.00
2019-05-07T19:11:38.006Z,4.00
2019-05-07T19:14:06.046Z,4.70
2019-05-07T19:16:35.365Z,5.47
2019-05-07T19:19:03.501Z,4.10
2019-05-07T19:21:33.016Z,4.77
2019-05-07T19:24:02.290Z,4.57
2019-05-07T19:26:30.505Z,5.50
2019-05-07T19:28:58.508Z,4.20
2019-05-07T19:31:26.533Z,4.90
2019-05-07T19:33:54.691Z,4.90
2019-05-07T19:36:22.760Z,4.23
2019-05-07T19:38:52.624Z,4.90
2019-05-07T19:41:23.876Z,5.20
2019-05-07T19:43:52.752Z,4.87
2019-05-07T19:46:34.056Z,4.60
2019-05-07T19:49:02.814Z,4.90
2019-05-07T19:51:32.045Z,4.57
2019-05-07T19:54:02.060Z,5.37
2019-05-07T19:56:32.244Z,4.87
2019-05-07T19:58:59.666Z,5.00
2019-05-07T20:01:42.623Z,4.60
2019-05-07T20:04:10.650Z,4.93
2019-05-07T20:06:38.587Z,4.70
2019-05-07T20:09:14.841Z,5.00
2019-05-07T20:11:47.394Z,4.83
2019-05-07T20:14:17.872Z,5.20
2019-05-07T20:16:45.818Z,5.10
2019-05-07T20:19:15.736Z,6.10
2019-05-07T20:21:43.924Z,4.80
2019-05-07T20:24:12.593Z,5.47
2019-05-07T20:26:42.793Z,5.33
2019-05-07T20:29:12.340Z,4.93
2019-05-07T20:31:42.284Z,5.60
2019-05-07T20:34:12.868Z,5.73
2019-05-07T20:36:42.843Z,5.37
2019-05-07T20:39:12.905Z,6.00
2019-05-07T20:41:45.613Z,5.20
2019-05-07T20:44:13.512Z,4.97
2019-05-07T20:46:42.183Z,5.00
2019-05-07T20:49:12.877Z,4.87
2019-05-07T20:51:41.883Z,4.70
2019-05-07T20:54:19.724Z,4.80
2019-05-07T20:56:53.860Z,5.03
2019-05-07T20:59:22.059Z,5.63
2019-05-07T21:01:50.131Z,6.00
2019-05-07T21:04:22.099Z,5.40
2019-05-07T21:06:49.574Z,5.13
2019-05-07T21:09:17.667Z,5.20
2019-05-07T21:11:46.021Z,5.17
2019-05-07T21:14:15.914Z,4.87
2019-05-07T21:16:45.233Z,5.07
2019-05-07T21:19:13.631Z,5.40
2019-05-07T21:21:49.961Z,4.40
2019-05-07T21:24:18.040Z,5.23
2019-05-07T21:26:46.115Z,5.93
2019-05-07T21:29:14.379Z,4.70
2019-05-07T21:31:43.023Z,5.57
2019-05-07T21:34:12.358Z,5.47
2019-05-07T21:36:42.980Z,4.97
2019-05-07T21:39:12.749Z,5.60
2019-05-07T21:41:42.404Z,4.97
2019-05-07T21:44:10.038Z,5.60
2019-05-07T21:46:38.439Z,4.70
2019-05-07T21:49:08.045Z,5.83
2019-05-07T21:51:36.291Z,5.50
2019-05-07T21:54:14.478Z,5.17
2019-05-07T21:57:18.602Z,5.40
2019-05-07T21:59:46.768Z,5.60
2019-05-07T22:02:22.228Z,5.43
2019-05-07T22:04:50.283Z,5.00
2019-05-07T22:07:18.991Z,5.60
2019-05-07T22:09:46.948Z,5.03
2019-05-07T22:12:15.020Z,4.77
2019-05-07T22:14:43.199Z,5.77
2019-05-07T22:17:13.408Z,5.17
2019-05-07T22:19:42.658Z,5.40
2019-05-07T22:22:12.387Z,5.23
2019-05-07T22:24:42.553Z,5.20
2019-05-07T22:27:12.631Z,5.03
2019-05-07T22:29:41.717Z,5.70
2019-05-07T22:32:18.051Z,5.70
2019-05-07T22:35:08.355Z,5.33
2019-05-07T22:37:36.283Z,5.53
2019-05-07T22:40:04.453Z,5.67
2019-05-07T22:42:32.758Z,5.43
2019-05-07T22:45:02.791Z,5.87
2019-05-07T22:47:32.497Z,6.20
2019-05-07T22:50:02.575Z,4.97
2019-05-07T22:52:29.993Z,5.40
2019-05-07T22:54:57.936Z,6.00
2019-05-07T22:57:48.202Z,5.83
2019-05-07T23:00:23.817Z,5.87
2019-05-07T23:02:53.859Z,5.80
2019-05-07T23:05:22.980Z,5.90
2019-05-07T23:07:52.665Z,5.67
2019-05-07T23:10:22.576Z,6.63
2019-05-07T23:12:50.539Z,5.60
2019-05-07T23:15:18.630Z,6.27
2019-05-07T23:17:46.699Z,5.60
2019-05-07T23:20:14.674Z,6.07
2019-05-07T23:22:42.860Z,6.07
2019-05-07T23:25:11.091Z,6.07
2019-05-07T23:27:39.261Z,5.93
2019-05-07T23:30:07.532Z,7.40
2019-05-07T23:32:35.950Z,6.30
2019-05-07T23:35:03.988Z,6.20
2019-05-07T23:37:33.142Z,5.90
2019-05-07T23:40:04.143Z,5.90
2019-05-07T23:42:34.477Z,6.23
2019-05-07T23:45:02.456Z,5.93
2019-05-07T23:47:31.790Z,7.60
2019-05-07T23:50:01.979Z,6.80
2019-05-07T23:52:29.568Z,6.20
2019-05-07T23:54:57.492Z,6.47
2019-05-07T23:57:25.581Z,6.37
2019-05-07T23:59:53.742Z,5.90
